createdAt,value
2017-03-04T00:00:37.693Z,0
2017-03-04T00:01:38.975Z,0
2017-03-04T00:02:40.213Z,0
2017-03-04T00:03:41.453Z,0
2017-03-04T00:04:42.699Z,0
2017-03-04T00:05:43.966Z,0
2017-03-04T00:06:45.225Z,0
2017-03-04T00:07:46.469Z,0
2017-03-04T00:08:47.712Z,0
2017-03-04T00:09:48.958Z,0
2017-03-04T00:10:50.192Z,0
2017-03-04T00:11:51.422Z,0
2017-03-04T00:12:52.655Z,0
2017-03-04T00:13:53.911Z,0
2017-03-04T00:14:55.147Z,0
2017-03-04T00:15:56.418Z,0
2017-03-04T00:16:57.628Z,0
2017-03-04T00:17:58.896Z,0
2017-03-04T00:19:00.247Z,0
2017-03-04T00:20:01.496Z,0
2017-03-04T00:21:02.735Z,0
2017-03-04T00:22:03.966Z,0
2017-03-04T00:23:05.215Z,0
2017-03-04T00:24:06.446Z,0
2017-03-04T00:25:07.706Z,0
2017-03-04T00:26:08.934Z,0
2017-03-04T00:27:10.169Z,0
2017-03-04T00:28:11.466Z,0
2017-03-04T00:29:12.756Z,0
2017-03-04T00:30:14.025Z,0
2017-03-04T00:31:15.253Z,0
2017-03-04T00:32:16.566Z,0
2017-03-04T00:33:17.794Z,0
2017-03-04T00:34:19.034Z,0
2017-03-04T00:35:20.269Z,0
2017-03-04T00:36:21.502Z,0
2017-03-04T00:37:22.750Z,0
2017-03-04T00:38:24.052Z,0
2017-03-04T00:39:25.257Z,0
2017-03-04T00:40:26.508Z,0
2017-03-04T00:41:27.761Z,0
2017-03-04T00:42:28.997Z,0
2017-03-04T00:43:30.232Z,0
2017-03-04T00:44:31.471Z,0
2017-03-04T00:45:32.722Z,0
2017-03-04T00:46:33.943Z,0
2017-03-04T00:47:35.223Z,0
2017-03-04T00:48:36.471Z,0
2017-03-04T00:49:37.710Z,0
2017-03-04T00:50:38.957Z,0
2017-03-04T00:51:40.272Z,0
2017-03-04T00:52:41.529Z,0
2017-03-04T00:53:42.775Z,0
2017-03-04T00:54:44.028Z,0
2017-03-04T00:55:45.249Z,0
2017-03-04T00:56:46.527Z,0
2017-03-04T00:57:47.766Z,0
2017-03-04T00:58:49.041Z,0
2017-03-04T00:59:50.254Z,0
2017-03-04T01:00:51.501Z,0
2017-03-04T01:01:52.731Z,0
2017-03-04T01:02:53.969Z,0
2017-03-04T01:03:55.278Z,0
2017-03-04T01:04:56.539Z,0
2017-03-04T01:05:57.758Z,0
2017-03-04T01:06:58.989Z,0
2017-03-04T01:08:00.236Z,0
2017-03-04T01:09:01.479Z,0
2017-03-04T01:10:02.710Z,0
2017-03-04T01:11:03.971Z,0
2017-03-04T01:12:05.203Z,0
2017-03-04T01:13:06.542Z,0
2017-03-04T01:14:07.760Z,0
2017-03-04T01:15:08.998Z,0
2017-03-04T01:16:10.242Z,0
2017-03-04T01:17:11.477Z,0
2017-03-04T01:18:12.714Z,0
2017-03-04T01:19:13.963Z,0
2017-03-04T01:20:15.188Z,0
2017-03-04T01:21:16.504Z,0
2017-03-04T01:22:17.763Z,0
2017-03-04T01:23:19.054Z,0
2017-03-04T01:24:20.281Z,0
2017-03-04T01:25:21.540Z,0
2017-03-04T01:26:22.780Z,0
2017-03-04T01:27:24.038Z,0
2017-03-04T01:28:25.349Z,0
2017-03-04T01:29:26.561Z,0
2017-03-04T01:30:27.840Z,0
2017-03-04T01:31:29.071Z,0
2017-03-04T01:32:30.333Z,0
2017-03-04T01:33:31.555Z,0
2017-03-04T01:34:32.789Z,0
2017-03-04T01:35:34.060Z,0
2017-03-04T01:36:35.279Z,0
2017-03-04T01:37:36.513Z,0
2017-03-04T01:38:37.778Z,0
2017-03-04T01:39:39.143Z,0
2017-03-04T01:40:40.378Z,0
2017-03-04T01:41:41.619Z,0
2017-03-04T01:42:42.855Z,0
2017-03-04T01:43:44.075Z,0
2017-03-04T01:44:45.287Z,0
2017-03-04T01:45:46.539Z,0
2017-03-04T01:46:47.774Z,0
2017-03-04T01:47:49.013Z,0
2017-03-04T01:48:50.242Z,0
2017-03-04T01:49:51.467Z,0
2017-03-04T01:50:52.826Z,0
2017-03-04T01:51:54.076Z,0
2017-03-04T01:52:55.310Z,0
2017-03-04T01:53:56.595Z,0
2017-03-04T01:54:57.859Z,0
2017-03-04T01:55:59.083Z,0
2017-03-04T01:57:00.324Z,0
2017-03-04T01:58:01.563Z,0
2017-03-04T01:59:02.804Z,0
2017-03-04T02:00:04.082Z,0
2017-03-04T02:01:05.273Z,0
2017-03-04T02:02:06.510Z,0
2017-03-04T02:03:07.738Z,0
2017-03-04T02:04:09.029Z,0
2017-03-04T02:05:10.316Z,0
2017-03-04T02:06:11.618Z,0
2017-03-04T02:07:12.871Z,0
2017-03-04T02:08:14.124Z,0
2017-03-04T02:09:15.332Z,0
2017-03-04T02:10:16.790Z,0
2017-03-04T02:11:18.071Z,0
2017-03-04T02:12:19.360Z,0
2017-03-04T02:13:20.599Z,0
2017-03-04T02:14:21.836Z,0
2017-03-04T02:15:23.069Z,0
2017-03-04T02:16:24.415Z,0
2017-03-04T02:17:25.686Z,0
2017-03-04T02:18:26.934Z,0
2017-03-04T02:19:28.161Z,0
2017-03-04T02:20:29.400Z,0
2017-03-04T02:21:30.632Z,0
2017-03-04T02:22:31.872Z,0
2017-03-04T02:23:33.120Z,0
2017-03-04T02:24:34.368Z,0
2017-03-04T02:25:35.599Z,0
2017-03-04T02:26:36.857Z,0
2017-03-04T02:27:38.096Z,0
2017-03-04T02:28:39.343Z,0
2017-03-04T02:29:40.658Z,0
2017-03-04T02:30:41.895Z,0
2017-03-04T02:31:43.130Z,0
2017-03-04T02:32:44.396Z,0
2017-03-04T02:33:45.632Z,0
2017-03-04T02:34:46.989Z,0
2017-03-04T02:35:48.228Z,0
2017-03-04T02:36:49.589Z,0
2017-03-04T02:37:50.912Z,0
2017-03-04T02:38:52.165Z,0
2017-03-04T02:39:53.382Z,0
2017-03-04T02:40:54.633Z,0
2017-03-04T02:41:55.878Z,0
2017-03-04T02:42:57.135Z,0
2017-03-04T02:43:58.391Z,0
2017-03-04T02:44:59.629Z,0
2017-03-04T02:46:00.869Z,0
2017-03-04T02:47:02.129Z,0
2017-03-04T02:48:03.592Z,0
2017-03-04T02:49:04.859Z,0
2017-03-04T02:50:06.088Z,0
2017-03-04T02:51:07.333Z,0
2017-03-04T02:52:08.657Z,0
2017-03-04T02:53:09.815Z,0
2017-03-04T02:54:11.143Z,0
2017-03-04T02:55:12.385Z,0
2017-03-04T02:56:13.632Z,0
2017-03-04T02:57:14.865Z,0
2017-03-04T02:58:16.112Z,0
2017-03-04T02:59:17.338Z,0
2017-03-04T03:00:18.656Z,0
2017-03-04T03:01:19.889Z,0
2017-03-04T03:02:21.150Z,0
2017-03-04T03:03:22.399Z,0
2017-03-04T03:04:23.632Z,0
2017-03-04T03:05:24.873Z,0
2017-03-04T03:06:26.121Z,0
2017-03-04T03:07:27.390Z,0
2017-03-04T03:08:28.629Z,0
2017-03-04T03:09:29.910Z,0
2017-03-04T03:10:31.160Z,0
2017-03-04T03:11:32.400Z,0
2017-03-04T03:12:33.767Z,0
2017-03-04T03:13:35.017Z,0
2017-03-04T03:14:36.244Z,0
2017-03-04T03:15:37.476Z,0
2017-03-04T03:16:38.709Z,0
2017-03-04T03:17:39.943Z,0
2017-03-04T03:18:41.187Z,0
2017-03-04T03:19:42.421Z,0
2017-03-04T03:20:43.661Z,0
2017-03-04T03:21:44.918Z,0
2017-03-04T03:22:46.150Z,0
2017-03-04T03:23:47.387Z,0
2017-03-04T03:24:48.712Z,0
2017-03-04T03:25:49.885Z,0
2017-03-04T03:26:51.153Z,0
2017-03-04T03:27:52.365Z,0
2017-03-04T03:28:53.608Z,0
2017-03-04T03:29:54.847Z,0
2017-03-04T03:30:56.106Z,0
2017-03-04T03:31:57.373Z,0
2017-03-04T03:32:58.619Z,0
2017-03-04T03:33:59.864Z,0
2017-03-04T03:35:01.110Z,0
2017-03-04T03:36:02.349Z,0
2017-03-04T03:37:03.590Z,0
2017-03-04T03:38:04.827Z,0
2017-03-04T03:39:06.049Z,0
2017-03-04T03:40:07.455Z,0
2017-03-04T03:41:08.787Z,0
2017-03-04T03:42:10.021Z,0
2017-03-04T03:43:11.272Z,0
2017-03-04T03:44:12.536Z,0
2017-03-04T03:45:13.764Z,0
2017-03-04T03:46:15.030Z,0
2017-03-04T03:47:16.259Z,0
2017-03-04T03:48:17.549Z,0
2017-03-04T03:49:18.802Z,0
2017-03-04T03:50:20.039Z,0
2017-03-04T03:51:21.285Z,0
2017-03-04T03:52:22.547Z,0
2017-03-04T03:53:23.953Z,0
2017-03-04T03:54:25.275Z,0
2017-03-04T03:55:26.495Z,0
2017-03-04T03:56:27.732Z,0
2017-03-04T03:57:28.981Z,0
2017-03-04T03:58:30.252Z,0
2017-03-04T03:59:31.476Z,0
2017-03-04T04:00:32.694Z,0
2017-03-04T04:01:33.931Z,0
2017-03-04T04:02:35.170Z,0
2017-03-04T04:03:36.479Z,0
2017-03-04T04:04:37.633Z,0
2017-03-04T04:05:38.887Z,0
2017-03-04T04:06:40.117Z,0
2017-03-04T04:07:41.405Z,0
2017-03-04T04:08:42.635Z,0
2017-03-04T04:09:43.950Z,0
2017-03-04T04:10:45.201Z,0
2017-03-04T04:11:46.453Z,0
2017-03-04T04:12:47.748Z,0
2017-03-04T04:13:48.951Z,0
2017-03-04T04:14:50.186Z,0
2017-03-04T04:15:51.447Z,0
2017-03-04T04:16:52.683Z,0
2017-03-04T04:17:53.914Z,0
2017-03-04T04:18:55.139Z,0
2017-03-04T04:19:56.384Z,0
2017-03-04T04:20:57.632Z,0
2017-03-04T04:21:58.894Z,0
2017-03-04T04:23:00.127Z,0
2017-03-04T04:24:01.372Z,0
2017-03-04T04:25:02.678Z,0
2017-03-04T04:26:03.991Z,0
2017-03-04T04:27:05.219Z,0
2017-03-04T04:28:06.458Z,0
2017-03-04T04:29:07.714Z,0
2017-03-04T04:30:08.954Z,0
2017-03-04T04:31:10.245Z,0
2017-03-04T04:32:11.499Z,0
2017-03-04T04:33:12.740Z,0
2017-03-04T04:34:13.960Z,0
2017-03-04T04:35:15.198Z,0
2017-03-04T04:36:16.436Z,0
2017-03-04T04:37:17.683Z,0
2017-03-04T04:38:19.028Z,0
2017-03-04T04:39:20.235Z,0
2017-03-04T04:40:21.483Z,0
2017-03-04T04:41:22.707Z,0
2017-03-04T04:42:23.943Z,0
2017-03-04T04:43:25.272Z,0
2017-03-04T04:44:26.517Z,0
2017-03-04T04:45:27.760Z,0
2017-03-04T04:46:29.001Z,0
2017-03-04T04:47:30.229Z,0
2017-03-04T04:48:31.485Z,0
2017-03-04T04:49:32.733Z,0
2017-03-04T04:50:34.002Z,0
2017-03-04T04:51:35.372Z,0
2017-03-04T04:52:36.632Z,0
2017-03-04T04:53:37.851Z,0
2017-03-04T04:54:39.079Z,0
2017-03-04T04:55:40.322Z,0
2017-03-04T04:56:41.610Z,0
2017-03-04T04:57:42.859Z,0
2017-03-04T04:58:44.087Z,0
2017-03-04T04:59:45.315Z,0
2017-03-04T05:00:46.552Z,0
2017-03-04T05:01:47.796Z,0
2017-03-04T05:02:49.035Z,0
2017-03-04T05:03:50.295Z,0
2017-03-04T05:04:51.538Z,0
2017-03-04T05:05:52.793Z,0
2017-03-04T05:06:54.010Z,0
2017-03-04T05:07:55.239Z,0
2017-03-04T05:08:56.601Z,0
2017-03-04T05:09:57.819Z,0
2017-03-04T05:10:59.092Z,0
2017-03-04T05:12:00.328Z,0
2017-03-04T05:13:01.571Z,0
2017-03-04T05:14:02.905Z,0
2017-03-04T05:15:04.084Z,0
2017-03-04T05:16:05.412Z,0
2017-03-04T05:17:06.652Z,0
2017-03-04T05:18:07.887Z,0
2017-03-04T05:19:09.124Z,0
2017-03-04T05:20:10.357Z,0
2017-03-04T05:21:11.590Z,0
2017-03-04T05:22:12.911Z,0
2017-03-04T05:23:14.196Z,0
2017-03-04T05:24:15.426Z,0
2017-03-04T05:25:16.687Z,0
2017-03-04T05:26:17.935Z,0
2017-03-04T05:27:19.175Z,0
2017-03-04T05:28:20.556Z,0
2017-03-04T05:29:21.752Z,0
2017-03-04T05:30:23.034Z,0
2017-03-04T05:31:24.273Z,0
2017-03-04T05:32:25.511Z,0
2017-03-04T05:33:26.771Z,0
2017-03-04T05:34:27.992Z,0
2017-03-04T05:35:29.269Z,0
2017-03-04T05:36:30.518Z,0
2017-03-04T05:37:31.859Z,0
2017-03-04T05:38:33.114Z,0
2017-03-04T05:39:34.325Z,0
2017-03-04T05:40:35.556Z,0
2017-03-04T05:41:36.795Z,0
2017-03-04T05:42:38.117Z,0
2017-03-04T05:43:39.297Z,0
2017-03-04T05:44:40.561Z,0
2017-03-04T05:45:41.793Z,0
2017-03-04T05:46:43.040Z,0
2017-03-04T05:47:44.463Z,0
2017-03-04T05:48:45.630Z,0
2017-03-04T05:49:46.930Z,0
2017-03-04T05:50:48.162Z,0
2017-03-04T05:51:49.437Z,0
2017-03-04T05:52:50.749Z,0
2017-03-04T05:53:51.925Z,0
2017-03-04T05:54:53.281Z,0
2017-03-04T05:55:54.502Z,0
2017-03-04T05:56:55.746Z,0
2017-03-04T05:57:56.998Z,0
2017-03-04T05:58:58.208Z,0
2017-03-04T05:59:59.447Z,0
2017-03-04T06:01:00.855Z,0
2017-03-04T06:02:02.113Z,0
2017-03-04T06:03:03.356Z,0
2017-03-04T06:04:04.597Z,0
2017-03-04T06:05:05.834Z,5
2017-03-04T06:06:07.083Z,5
2017-03-04T06:07:08.392Z,5
2017-03-04T06:08:09.701Z,5
2017-03-04T06:09:10.944Z,5
2017-03-04T06:10:12.180Z,5
2017-03-04T06:11:13.428Z,5
2017-03-04T06:12:14.727Z,10
2017-03-04T06:13:15.957Z,10
2017-03-04T06:14:17.209Z,10
2017-03-04T06:15:18.607Z,10
2017-03-04T06:16:19.846Z,15
2017-03-04T06:17:21.073Z,15
2017-03-04T06:18:22.302Z,15
2017-03-04T06:19:23.605Z,20
2017-03-04T06:20:24.821Z,20
2017-03-04T06:21:26.058Z,20
2017-03-04T06:22:27.319Z,25
2017-03-04T06:23:28.523Z,25
2017-03-04T06:24:29.770Z,25
2017-03-04T06:25:31.007Z,30
2017-03-04T06:26:32.295Z,30
2017-03-04T06:27:33.675Z,30
2017-03-04T06:28:34.995Z,35
2017-03-04T06:29:36.242Z,35
2017-03-04T06:30:37.482Z,40
2017-03-04T06:31:38.751Z,40
2017-03-04T06:32:39.980Z,45
2017-03-04T06:33:41.389Z,45
2017-03-04T06:34:42.632Z,50
2017-03-04T06:35:43.888Z,50
2017-03-04T06:36:45.200Z,55
2017-03-04T06:37:46.473Z,55
2017-03-04T06:38:47.678Z,55
2017-03-04T06:39:48.915Z,60
2017-03-04T06:40:50.146Z,65
2017-03-04T06:41:51.377Z,65
2017-03-04T06:42:52.643Z,70
2017-03-04T06:43:53.868Z,75
2017-03-04T06:44:55.122Z,80
2017-03-04T06:45:56.358Z,80
2017-03-04T06:46:57.602Z,85
2017-03-04T06:47:58.899Z,90
2017-03-04T06:49:00.146Z,95
2017-03-04T06:50:01.372Z,95
2017-03-04T06:51:02.640Z,100
2017-03-04T06:52:03.935Z,100
2017-03-04T06:53:05.188Z,100
2017-03-04T06:54:06.414Z,100
2017-03-04T06:55:07.646Z,100
2017-03-04T06:56:08.892Z,100
2017-03-04T06:57:10.134Z,100
2017-03-04T06:58:11.386Z,100
2017-03-04T06:59:12.681Z,100
2017-03-04T07:00:13.869Z,100
2017-03-04T07:01:15.108Z,100
2017-03-04T07:02:16.350Z,100
2017-03-04T07:03:17.589Z,95
2017-03-04T07:04:18.848Z,95
2017-03-04T07:05:20.084Z,100
2017-03-04T07:06:21.450Z,100
2017-03-04T07:07:22.684Z,105
2017-03-04T07:08:23.903Z,105
2017-03-04T07:09:25.178Z,105
2017-03-04T07:10:26.436Z,110
2017-03-04T07:11:27.697Z,120
2017-03-04T07:12:28.940Z,125
2017-03-04T07:13:30.271Z,135
2017-03-04T07:14:31.506Z,140
2017-03-04T07:15:32.755Z,145
2017-03-04T07:16:34.001Z,145
2017-03-04T07:17:35.239Z,145
2017-03-04T07:18:36.532Z,150
2017-03-04T07:19:37.777Z,150
2017-03-04T07:20:39.164Z,150
2017-03-04T07:21:40.424Z,150
2017-03-04T07:22:41.894Z,150
2017-03-04T07:23:43.151Z,145
2017-03-04T07:24:44.376Z,145
2017-03-04T07:25:45.638Z,140
2017-03-04T07:26:46.875Z,140
2017-03-04T07:27:48.116Z,140
2017-03-04T07:28:49.503Z,140
2017-03-04T07:29:50.796Z,145
2017-03-04T07:30:52.049Z,150
2017-03-04T07:31:53.301Z,155
2017-03-04T07:32:54.542Z,160
2017-03-04T07:33:55.781Z,165
2017-03-04T07:34:57.039Z,165
2017-03-04T07:35:58.294Z,165
2017-03-04T07:36:59.567Z,165
2017-03-04T07:38:00.840Z,165
2017-03-04T07:39:02.065Z,165
2017-03-04T07:40:03.421Z,175
2017-03-04T07:41:04.646Z,180
2017-03-04T07:42:05.892Z,185
2017-03-04T07:43:07.137Z,180
2017-03-04T07:44:08.406Z,180
2017-03-04T07:45:09.641Z,180
2017-03-04T07:46:10.897Z,180
2017-03-04T07:47:12.176Z,180
2017-03-04T07:48:13.478Z,185
2017-03-04T07:49:14.717Z,185
2017-03-04T07:50:15.958Z,190
2017-03-04T07:51:17.188Z,200
2017-03-04T07:52:18.426Z,200
2017-03-04T07:53:19.668Z,210
2017-03-04T07:54:20.936Z,215
2017-03-04T07:55:22.189Z,220
2017-03-04T07:56:23.577Z,230
2017-03-04T07:57:24.822Z,245
2017-03-04T07:58:26.058Z,255
2017-03-04T07:59:27.309Z,265
2017-03-04T08:00:28.754Z,280
2017-03-04T08:01:30.046Z,295
2017-03-04T08:02:31.315Z,310
2017-03-04T08:03:32.567Z,320
2017-03-04T08:04:33.800Z,335
2017-03-04T08:05:35.147Z,350
2017-03-04T08:06:36.383Z,365
2017-03-04T08:07:37.630Z,380
2017-03-04T08:08:38.951Z,400
2017-03-04T08:09:40.210Z,415
2017-03-04T08:10:41.485Z,425
2017-03-04T08:11:42.733Z,445
2017-03-04T08:12:44.033Z,460
2017-03-04T08:13:45.234Z,470
2017-03-04T08:14:46.497Z,475
2017-03-04T08:15:47.777Z,475
2017-03-04T08:16:49.017Z,475
2017-03-04T08:17:50.252Z,475
2017-03-04T08:18:51.518Z,475
2017-03-04T08:19:52.807Z,480
2017-03-04T08:20:54.045Z,485
2017-03-04T08:21:55.293Z,485
2017-03-04T08:22:56.649Z,480
2017-03-04T08:23:57.818Z,490
2017-03-04T08:24:59.077Z,495
2017-03-04T08:26:00.328Z,510
2017-03-04T08:27:01.567Z,515
2017-03-04T08:28:02.806Z,500
2017-03-04T08:29:04.103Z,485
2017-03-04T08:30:05.373Z,485
2017-03-04T08:31:06.685Z,465
2017-03-04T08:32:07.935Z,450
2017-03-04T08:33:09.191Z,435
2017-03-04T08:34:10.433Z,420
2017-03-04T08:35:11.686Z,405
2017-03-04T08:36:12.938Z,395
2017-03-04T08:37:14.210Z,390
2017-03-04T08:38:15.469Z,380
2017-03-04T08:39:16.754Z,375
2017-03-04T08:40:17.977Z,370
2017-03-04T08:41:19.264Z,370
2017-03-04T08:42:20.508Z,370
2017-03-04T08:43:21.767Z,370
2017-03-04T08:44:23.058Z,375
2017-03-04T08:45:24.308Z,375
2017-03-04T08:46:25.519Z,380
2017-03-04T08:47:26.769Z,380
2017-03-04T08:48:28.017Z,380
2017-03-04T08:49:29.268Z,385
2017-03-04T08:50:30.687Z,390
2017-03-04T08:51:31.928Z,395
2017-03-04T08:52:33.214Z,400
2017-03-04T08:53:34.459Z,405
2017-03-04T08:54:35.715Z,405
2017-03-04T08:55:36.973Z,410
2017-03-04T08:56:38.251Z,405
2017-03-04T08:57:39.486Z,410
2017-03-04T08:58:40.719Z,410
2017-03-04T08:59:41.962Z,390
2017-03-04T09:00:43.220Z,390
2017-03-04T09:01:44.480Z,395
2017-03-04T09:02:45.717Z,400
2017-03-04T09:03:46.946Z,405
2017-03-04T09:04:48.177Z,410
2017-03-04T09:05:49.424Z,410
2017-03-04T09:06:50.663Z,415
2017-03-04T09:07:51.943Z,415
2017-03-04T09:08:53.251Z,415
2017-03-04T09:09:54.522Z,420
2017-03-04T09:10:55.771Z,425
2017-03-04T09:11:57.168Z,435
2017-03-04T09:12:58.409Z,440
2017-03-04T09:13:59.661Z,440
2017-03-04T09:15:01.185Z,440
2017-03-04T09:16:02.425Z,440
2017-03-04T09:17:03.689Z,435
2017-03-04T09:18:04.945Z,425
2017-03-04T09:19:06.193Z,420
2017-03-04T09:20:07.516Z,410
2017-03-04T09:21:08.772Z,400
2017-03-04T09:22:10.042Z,400
2017-03-04T09:23:11.273Z,395
2017-03-04T09:24:12.519Z,395
2017-03-04T09:25:13.766Z,390
2017-03-04T09:26:15.043Z,385
2017-03-04T09:27:16.269Z,385
2017-03-04T09:28:17.500Z,380
2017-03-04T09:29:18.735Z,380
2017-03-04T09:30:19.954Z,380
2017-03-04T09:31:21.226Z,380
2017-03-04T09:32:22.474Z,385
2017-03-04T09:33:23.731Z,390
2017-03-04T09:34:25.013Z,395
2017-03-04T09:35:26.238Z,400
2017-03-04T09:36:27.496Z,410
2017-03-04T09:37:28.728Z,425
2017-03-04T09:38:29.976Z,435
2017-03-04T09:39:31.241Z,450
2017-03-04T09:40:32.634Z,475
2017-03-04T09:41:33.883Z,535
2017-03-04T09:42:35.132Z,560
2017-03-04T09:43:36.374Z,540
2017-03-04T09:44:37.635Z,525
2017-03-04T09:45:38.870Z,545
2017-03-04T09:46:40.141Z,585
2017-03-04T09:47:41.415Z,600
2017-03-04T09:48:42.688Z,585
2017-03-04T09:49:43.934Z,550
2017-03-04T09:50:45.181Z,545
2017-03-04T09:51:46.426Z,535
2017-03-04T09:52:47.679Z,540
2017-03-04T09:53:48.924Z,565
2017-03-04T09:54:50.168Z,580
2017-03-04T09:55:51.450Z,570
2017-03-04T09:56:52.773Z,565
2017-03-04T09:57:54.064Z,565
2017-03-04T09:58:55.342Z,570
2017-03-04T09:59:56.720Z,625
2017-03-04T10:00:57.967Z,670
2017-03-04T10:01:59.216Z,695
2017-03-04T10:03:00.440Z,685
2017-03-04T10:04:01.700Z,690
2017-03-04T10:05:03.024Z,730
2017-03-04T10:06:04.250Z,755
2017-03-04T10:07:05.506Z,785
2017-03-04T10:08:06.757Z,805
2017-03-04T10:09:08.009Z,765
2017-03-04T10:10:09.272Z,775
2017-03-04T10:11:10.586Z,685
2017-03-04T10:12:11.842Z,630
2017-03-04T10:13:13.096Z,590
2017-03-04T10:14:14.350Z,570
2017-03-04T10:15:15.615Z,560
2017-03-04T10:16:16.880Z,560
2017-03-04T10:17:18.096Z,560
2017-03-04T10:18:19.331Z,550
2017-03-04T10:19:20.700Z,535
2017-03-04T10:20:21.974Z,545
2017-03-04T10:21:23.235Z,545
2017-03-04T10:22:24.479Z,575
2017-03-04T10:23:25.734Z,580
2017-03-04T10:24:26.974Z,595
2017-03-04T10:25:28.317Z,620
2017-03-04T10:26:29.541Z,650
2017-03-04T10:27:30.789Z,630
2017-03-04T10:28:32.079Z,635
2017-03-04T10:29:33.336Z,585
2017-03-04T10:30:34.679Z,590
2017-03-04T10:31:35.944Z,590
2017-03-04T10:32:37.199Z,565
2017-03-04T10:33:38.452Z,560
2017-03-04T10:34:39.700Z,575
2017-03-04T10:35:41.002Z,590
2017-03-04T10:36:42.259Z,615
2017-03-04T10:37:43.546Z,615
2017-03-04T10:38:44.854Z,675
2017-03-04T10:39:46.099Z,630
2017-03-04T10:40:47.349Z,615
2017-03-04T10:41:48.616Z,600
2017-03-04T10:42:49.905Z,560
2017-03-04T10:43:51.187Z,555
2017-03-04T10:44:52.433Z,555
2017-03-04T10:45:53.683Z,560
2017-03-04T10:46:54.934Z,545
2017-03-04T10:47:56.231Z,545
2017-03-04T10:48:57.509Z,540
2017-03-04T10:49:58.860Z,540
2017-03-04T10:51:00.127Z,535
2017-03-04T10:52:01.414Z,525
2017-03-04T10:53:02.632Z,520
2017-03-04T10:54:03.875Z,510
2017-03-04T10:55:05.160Z,515
2017-03-04T10:56:06.422Z,525
2017-03-04T10:57:07.666Z,535
2017-03-04T10:58:08.934Z,545
2017-03-04T10:59:10.214Z,560
2017-03-04T11:00:11.497Z,550
2017-03-04T11:01:12.827Z,555
2017-03-04T11:02:14.088Z,565
2017-03-04T11:03:15.400Z,575
2017-03-04T11:04:16.665Z,585
2017-03-04T11:05:17.907Z,585
2017-03-04T11:06:19.156Z,580
2017-03-04T11:07:20.410Z,570
2017-03-04T11:08:21.815Z,565
2017-03-04T11:09:23.046Z,550
2017-03-04T11:10:24.283Z,535
2017-03-04T11:11:25.522Z,515
2017-03-04T11:12:26.771Z,515
2017-03-04T11:13:28.010Z,495
2017-03-04T11:14:29.273Z,480
2017-03-04T11:15:30.551Z,470
2017-03-04T11:16:31.769Z,460
2017-03-04T11:17:33.022Z,455
2017-03-04T11:18:34.285Z,455
2017-03-04T11:19:35.659Z,445
2017-03-04T11:20:36.912Z,445
2017-03-04T11:21:38.156Z,440
2017-03-04T11:22:39.399Z,440
2017-03-04T11:23:40.699Z,445
2017-03-04T11:24:41.937Z,445
2017-03-04T11:25:43.199Z,450
2017-03-04T11:26:44.484Z,445
2017-03-04T11:27:45.721Z,445
2017-03-04T11:28:46.971Z,450
2017-03-04T11:29:48.264Z,440
2017-03-04T11:30:49.512Z,435
2017-03-04T11:31:50.875Z,430
2017-03-04T11:32:52.086Z,420
2017-03-04T11:33:53.303Z,415
2017-03-04T11:34:54.544Z,415
2017-03-04T11:35:55.815Z,405
2017-03-04T11:36:57.141Z,400
2017-03-04T11:37:58.391Z,395
2017-03-04T11:38:59.758Z,395
2017-03-04T11:40:01.028Z,395
2017-03-04T11:41:02.288Z,400
2017-03-04T11:42:03.569Z,405
2017-03-04T11:43:04.827Z,410
2017-03-04T11:44:06.067Z,420
2017-03-04T11:45:07.334Z,420
2017-03-04T11:46:08.609Z,425
2017-03-04T11:47:09.879Z,435
2017-03-04T11:48:11.214Z,435
2017-03-04T11:49:12.478Z,440
2017-03-04T11:50:13.743Z,450
2017-03-04T11:51:15.100Z,450
2017-03-04T11:52:16.349Z,455
2017-03-04T11:53:17.850Z,460
2017-03-04T11:54:19.128Z,465
2017-03-04T11:55:20.356Z,475
2017-03-04T11:56:21.614Z,485
2017-03-04T11:57:22.931Z,490
2017-03-04T11:58:24.171Z,500
2017-03-04T11:59:25.430Z,505
2017-03-04T12:00:26.674Z,505
2017-03-04T12:01:27.943Z,510
2017-03-04T12:02:29.192Z,515
2017-03-04T12:03:30.558Z,515
2017-03-04T12:04:31.792Z,515
2017-03-04T12:05:33.051Z,515
2017-03-04T12:06:34.316Z,515
2017-03-04T12:07:35.565Z,515
2017-03-04T12:08:36.816Z,515
2017-03-04T12:09:38.082Z,510
2017-03-04T12:10:39.365Z,505
2017-03-04T12:11:40.600Z,505
2017-03-04T12:12:41.871Z,505
2017-03-04T12:13:43.118Z,505
2017-03-04T12:14:44.339Z,500
2017-03-04T12:15:45.616Z,505
2017-03-04T12:16:46.877Z,505
2017-03-04T12:17:48.106Z,510
2017-03-04T12:18:49.365Z,505
2017-03-04T12:19:50.679Z,510
2017-03-04T12:20:51.927Z,515
2017-03-04T12:21:53.174Z,515
2017-03-04T12:22:54.413Z,520
2017-03-04T12:23:55.743Z,535
2017-03-04T12:24:56.971Z,540
2017-03-04T12:25:58.212Z,555
2017-03-04T12:26:59.464Z,565
2017-03-04T12:28:00.788Z,565
2017-03-04T12:29:02.075Z,550
2017-03-04T12:30:03.434Z,545
2017-03-04T12:31:04.669Z,530
2017-03-04T12:32:05.906Z,520
2017-03-04T12:33:07.264Z,505
2017-03-04T12:34:08.609Z,495
2017-03-04T12:35:09.868Z,480
2017-03-04T12:36:11.092Z,475
2017-03-04T12:37:12.358Z,460
2017-03-04T12:38:13.609Z,445
2017-03-04T12:39:14.852Z,435
2017-03-04T12:40:16.090Z,425
2017-03-04T12:41:17.426Z,410
2017-03-04T12:42:18.668Z,400
2017-03-04T12:43:19.906Z,400
2017-03-04T12:44:21.331Z,400
2017-03-04T12:45:22.584Z,400
2017-03-04T12:46:23.901Z,390
2017-03-04T12:47:25.174Z,390
2017-03-04T12:48:26.481Z,405
2017-03-04T12:49:27.748Z,405
2017-03-04T12:50:29.037Z,410
2017-03-04T12:51:30.240Z,415
2017-03-04T12:52:31.589Z,415
2017-03-04T12:53:32.859Z,425
2017-03-04T12:54:34.115Z,430
2017-03-04T12:55:35.436Z,440
2017-03-04T12:56:36.774Z,440
2017-03-04T12:57:38.019Z,440
2017-03-04T12:58:39.292Z,435
2017-03-04T12:59:40.530Z,425
2017-03-04T13:00:41.779Z,420
2017-03-04T13:01:43.022Z,415
2017-03-04T13:02:44.262Z,400
2017-03-04T13:03:45.521Z,385
2017-03-04T13:04:46.777Z,375
2017-03-04T13:05:48.028Z,375
2017-03-04T13:06:49.376Z,365
2017-03-04T13:07:50.635Z,355
2017-03-04T13:08:51.947Z,350
2017-03-04T13:09:53.406Z,340
2017-03-04T13:10:54.755Z,335
2017-03-04T13:11:56.004Z,335
2017-03-04T13:12:57.269Z,335
2017-03-04T13:13:58.504Z,335
2017-03-04T13:14:59.822Z,335
2017-03-04T13:16:01.050Z,340
2017-03-04T13:17:02.311Z,345
2017-03-04T13:18:03.578Z,345
2017-03-04T13:19:04.817Z,345
2017-03-04T13:20:06.056Z,350
2017-03-04T13:21:07.316Z,355
2017-03-04T13:22:08.589Z,365
2017-03-04T13:23:09.837Z,370
2017-03-04T13:24:11.079Z,370
2017-03-04T13:25:12.322Z,370
2017-03-04T13:26:13.595Z,370
2017-03-04T13:27:14.946Z,360
2017-03-04T13:28:16.186Z,350
2017-03-04T13:29:17.499Z,340
2017-03-04T13:30:18.737Z,330
2017-03-04T13:31:19.975Z,325
2017-03-04T13:32:21.401Z,320
2017-03-04T13:33:22.720Z,315
2017-03-04T13:34:23.960Z,315
2017-03-04T13:35:25.310Z,320
2017-03-04T13:36:26.545Z,320
2017-03-04T13:37:27.781Z,320
2017-03-04T13:38:29.108Z,325
2017-03-04T13:39:30.301Z,330
2017-03-04T13:40:31.590Z,335
2017-03-04T13:41:32.822Z,340
2017-03-04T13:42:34.067Z,345
2017-03-04T13:43:35.333Z,345
2017-03-04T13:44:36.580Z,345
2017-03-04T13:45:37.836Z,345
2017-03-04T13:46:39.092Z,345
2017-03-04T13:47:40.358Z,335
2017-03-04T13:48:41.603Z,335
2017-03-04T13:49:42.866Z,330
2017-03-04T13:50:44.115Z,325
2017-03-04T13:51:45.370Z,325
2017-03-04T13:52:46.628Z,320
2017-03-04T13:53:47.911Z,320
2017-03-04T13:54:49.140Z,325
2017-03-04T13:55:50.405Z,325
2017-03-04T13:56:51.673Z,325
2017-03-04T13:57:52.943Z,330
2017-03-04T13:58:54.193Z,330
2017-03-04T13:59:55.453Z,335
2017-03-04T14:00:56.706Z,340
2017-03-04T14:01:57.952Z,345
2017-03-04T14:02:59.251Z,350
2017-03-04T14:04:00.490Z,350
2017-03-04T14:05:01.729Z,355
2017-03-04T14:06:03.019Z,365
2017-03-04T14:07:04.297Z,360
2017-03-04T14:08:05.550Z,360
2017-03-04T14:09:06.816Z,360
2017-03-04T14:10:08.048Z,355
2017-03-04T14:11:09.305Z,350
2017-03-04T14:12:10.571Z,345
2017-03-04T14:13:11.965Z,340
2017-03-04T14:14:13.331Z,330
2017-03-04T14:15:14.556Z,320
2017-03-04T14:16:15.798Z,320
2017-03-04T14:17:17.177Z,310
2017-03-04T14:18:18.406Z,300
2017-03-04T14:19:19.665Z,290
2017-03-04T14:20:20.917Z,280
2017-03-04T14:21:22.157Z,270
2017-03-04T14:22:23.393Z,265
2017-03-04T14:23:24.691Z,255
2017-03-04T14:24:25.915Z,250
2017-03-04T14:25:27.164Z,245
2017-03-04T14:26:28.426Z,245
2017-03-04T14:27:29.674Z,245
2017-03-04T14:28:30.919Z,245
2017-03-04T14:29:32.162Z,240
2017-03-04T14:30:33.411Z,245